Аэропорт: Кокшетау. Кокшетау

ICAO: UACK

METAR:
2018/09/19 07:30
UACK 190730Z 17010MPS CAVOK 20/02 Q1012 R20/010070 NOSIG RMK QFE736/0981
METAR:
2014/11/02 12:00
TAF UACK 021140Z 0212/0221 CNL